Sao Jose do Barreiro, Brazil
Current Conditions -  °F | °C
As of 8:00 PM on Sunday 21 Dec 2014 (Local Time) from SBGW Reporting Station
Light Rain Light Rain  
Wind Chill: 73°   Ceiling: 5000
Heat Index: 73°   Visibility: 3mi
Dew Point: 70°   Wind: 3mph
Humidity: 88%   Direction: 100°E
Pressure: 29.88"   Gusts: NA
Location:  22.65°S, 44.58°W
Report Text: SBGW 212200Z 10003KT 5000 -RA BR SCT030 BKN050 23/21 Q1012
Loading
Personal Weather Stations






























Interactive Weather Map New forecast layout! Learn more

10-Day Weather Forecast

Advertisements
Track Severe Weather on mobile